Ridderkerk, Netherlands
Current Conditions -  °F | °C
As of 3:25 PM on Friday 19 Dec 2014 (Local Time) from EHRD Reporting Station
Clear Clear  
Wind Chill: 42°   Ceiling: Unl
Heat Index: 48°   Visibility: 6mi
Dew Point: 39°   Wind: 16mph
Humidity: 71%   Direction: 270°W
Pressure: 29.91"   Gusts: NA
Location:  51.87°N, 4.6°E
Report Text: EHRD 191425Z AUTO 27014KT 240V310 9999 NCD 09/04 Q1013 NOSIG
Loading
Personal Weather Stations






























Interactive Weather Map New forecast layout! Learn more

10-Day Weather Forecast

Advertisements
Track Severe Weather on mobile